createdAt,value
2023-05-03T00:00:21.908Z,18.8
2023-05-03T00:01:38.112Z,18.8
2023-05-03T00:02:54.299Z,18.8
2023-05-03T00:04:10.470Z,18.8
2023-05-03T00:05:25.441Z,18.8
2023-05-03T00:06:41.623Z,18.8
2023-05-03T00:07:57.809Z,18.8
2023-05-03T00:09:13.999Z,18.8
2023-05-03T00:10:30.431Z,18.8
2023-05-03T00:11:46.359Z,18.8
2023-05-03T00:13:02.803Z,18.8
2023-05-03T00:14:18.994Z,18.8
2023-05-03T00:15:35.177Z,18.8
2023-05-03T00:16:51.355Z,18.8
2023-05-03T00:18:07.545Z,18.8
2023-05-03T00:19:23.494Z,18.8
2023-05-03T00:20:39.665Z,18.8
2023-05-03T00:21:54.881Z,18.8
2023-05-03T00:23:11.319Z,18.8
2023-05-03T00:24:27.495Z,18.8
2023-05-03T00:25:43.682Z,18.8
2023-05-03T00:26:59.629Z,18.8
2023-05-03T00:28:15.814Z,18.8
2023-05-03T00:29:31.031Z,18.8
2023-05-03T00:30:47.202Z,18.8
2023-05-03T00:32:03.648Z,18.8
2023-05-03T00:33:19.575Z,18.8
2023-05-03T00:34:35.777Z,18.8
2023-05-03T00:35:52.198Z,18.8
2023-05-03T00:37:08.400Z,18.8
2023-05-03T00:38:24.588Z,18.8
2023-05-03T00:39:40.508Z,18.8
2023-05-03T00:40:56.953Z,18.8
2023-05-03T00:42:12.882Z,18.8
2023-05-03T00:43:29.329Z,18.8
2023-05-03T00:44:45.526Z,18.8
2023-05-03T00:46:00.460Z,18.7
2023-05-03T00:47:16.902Z,18.7
2023-05-03T00:48:33.096Z,18.7
2023-05-03T00:49:49.286Z,18.7
2023-05-03T00:51:05.217Z,18.7
2023-05-03T00:52:21.412Z,18.7
2023-05-03T00:53:37.848Z,18.7
2023-05-03T00:54:53.785Z,18.7
2023-05-03T00:56:09.967Z,18.7
2023-05-03T00:57:26.142Z,18.7
2023-05-03T00:58:42.341Z,18.7
2023-05-03T00:59:58.786Z,18.7
2023-05-03T01:01:14.970Z,18.7
2023-05-03T01:02:30.166Z,18.7
2023-05-03T01:03:46.101Z,18.7
2023-05-03T01:05:02.288Z,18.7
2023-05-03T01:06:18.734Z,18.7
2023-05-03T01:07:34.658Z,18.7
2023-05-03T01:08:51.108Z,18.7
2023-05-03T01:10:07.299Z,18.7
2023-05-03T01:11:23.219Z,18.7
2023-05-03T01:12:39.400Z,18.7
2023-05-03T01:13:55.590Z,18.7
2023-05-03T01:15:11.780Z,18.7
2023-05-03T01:16:28.234Z,18.7
2023-05-03T01:17:44.164Z,18.7
2023-05-03T01:18:59.351Z,18.6
2023-05-03T01:20:15.549Z,18.7
2023-05-03T01:21:31.991Z,18.7
2023-05-03T01:22:48.187Z,18.7
2023-05-03T01:24:04.112Z,18.7
2023-05-03T01:25:20.545Z,18.6
2023-05-03T01:26:36.736Z,18.6
2023-05-03T01:27:52.672Z,18.6
2023-05-03T01:29:09.107Z,18.6
2023-05-03T01:30:25.314Z,18.6
2023-05-03T01:31:41.227Z,18.6
2023-05-03T01:32:57.683Z,18.6
2023-05-03T01:34:13.875Z,18.6
2023-05-03T01:35:29.060Z,18.6
2023-05-03T01:36:45.257Z,18.6
2023-05-03T01:38:01.184Z,18.6
2023-05-03T01:39:17.635Z,18.6
2023-05-03T01:40:33.814Z,18.6
2023-05-03T01:41:50.009Z,18.6
2023-05-03T01:43:06.191Z,18.6
2023-05-03T01:44:22.375Z,18.6
2023-05-03T01:45:38.567Z,18.5
2023-05-03T01:46:54.760Z,18.5
2023-05-03T01:48:10.943Z,18.6
2023-05-03T01:49:26.859Z,18.6
2023-05-03T01:50:43.049Z,18.5
2023-05-03T01:51:58.519Z,18.5
2023-05-03T01:53:14.706Z,18.5
2023-05-03T01:54:30.889Z,18.5
2023-05-03T01:55:47.081Z,18.5
2023-05-03T01:57:03.004Z,18.5
2023-05-03T01:58:19.176Z,18.5
2023-05-03T01:59:35.647Z,18.5
2023-05-03T02:00:51.549Z,18.5
2023-05-03T02:02:07.746Z,18.5
2023-05-03T02:03:23.925Z,18.5
2023-05-03T02:04:40.380Z,18.5
2023-05-03T02:05:56.573Z,18.5
2023-05-03T02:07:12.772Z,18.5
2023-05-03T02:08:27.958Z,18.5
2023-05-03T02:09:43.882Z,18.5
2023-05-03T02:11:00.068Z,18.5
2023-05-03T02:12:16.245Z,18.5
2023-05-03T02:13:32.445Z,18.5
2023-05-03T02:14:48.638Z,18.5
2023-05-03T02:16:05.097Z,18.5
2023-05-03T02:17:21.273Z,18.5
2023-05-03T02:18:37.464Z,18.5
2023-05-03T02:19:53.645Z,18.5
2023-05-03T02:21:09.571Z,18.4
2023-05-03T02:22:25.756Z,18.4
2023-05-03T02:23:41.930Z,18.4
2023-05-03T02:24:57.418Z,18.4
2023-05-03T02:26:13.602Z,18.4
2023-05-03T02:27:29.504Z,18.4
2023-05-03T02:28:45.707Z,18.4
2023-05-03T02:30:02.165Z,18.4
2023-05-03T02:31:18.084Z,18.4
2023-05-03T02:32:34.532Z,18.4
2023-05-03T02:33:50.720Z,18.4
2023-05-03T02:35:06.907Z,18.4
2023-05-03T02:36:22.824Z,18.4
2023-05-03T02:37:39.284Z,18.4
2023-05-03T02:38:55.189Z,18.4
2023-05-03T02:40:11.380Z,18.4
2023-05-03T02:41:26.865Z,18.4
2023-05-03T02:42:42.778Z,18.4
2023-05-03T02:43:58.955Z,18.4
2023-05-03T02:45:15.434Z,18.4
2023-05-03T02:46:31.609Z,18.4
2023-05-03T02:47:47.529Z,18.4
2023-05-03T02:49:03.712Z,18.4
2023-05-03T02:50:20.182Z,18.4
2023-05-03T02:51:36.070Z,18.4
2023-05-03T02:52:52.541Z,18.3
2023-05-03T02:54:08.728Z,18.3
2023-05-03T02:55:24.925Z,18.3
2023-05-03T02:56:41.111Z,18.3
2023-05-03T02:57:56.314Z,18.3
2023-05-03T02:59:12.498Z,18.3
2023-05-03T03:00:28.406Z,18.3
2023-05-03T03:01:44.873Z,18.3
2023-05-03T03:03:00.778Z,18.3
2023-05-03T03:04:17.244Z,18.3
2023-05-03T03:05:33.152Z,18.3
2023-05-03T03:06:49.327Z,18.3
2023-05-03T03:08:05.809Z,18.3
2023-05-03T03:09:21.986Z,18.3
2023-05-03T03:10:38.187Z,18.3
2023-05-03T03:11:54.075Z,18.3
2023-05-03T03:13:10.555Z,18.3
2023-05-03T03:14:25.761Z,18.3
2023-05-03T03:15:41.938Z,18.3
2023-05-03T03:16:58.128Z,18.2
2023-05-03T03:18:14.035Z,18.3
2023-05-03T03:19:30.517Z,18.3
2023-05-03T03:20:46.689Z,18.3
2023-05-03T03:22:02.595Z,18.3
2023-05-03T03:23:19.079Z,18.3
2023-05-03T03:24:35.266Z,18.3
2023-05-03T03:25:51.449Z,18.3
2023-05-03T03:27:07.627Z,18.3
2023-05-03T03:28:23.825Z,18.3
2023-05-03T03:29:39.709Z,18.3
2023-05-03T03:30:55.211Z,18.3
2023-05-03T03:32:11.387Z,18.3
2023-05-03T03:33:27.584Z,18.3
2023-05-03T03:34:43.762Z,18.3
2023-05-03T03:35:59.948Z,18.3
2023-05-03T03:37:15.850Z,18.2
2023-05-03T03:38:32.038Z,18.2
2023-05-03T03:39:48.524Z,18.3
2023-05-03T03:41:04.702Z,18.3
2023-05-03T03:42:20.886Z,18.3
2023-05-03T03:43:36.792Z,18.3
2023-05-03T03:44:52.981Z,18.3
2023-05-03T03:46:09.463Z,18.3
2023-05-03T03:47:24.667Z,18.2
2023-05-03T03:48:40.841Z,18.3
2023-05-03T03:49:57.031Z,18.2
2023-05-03T03:51:12.930Z,18.3
2023-05-03T03:52:29.105Z,18.3
2023-05-03T03:53:45.599Z,18.2
2023-05-03T03:55:01.790Z,18.2
2023-05-03T03:56:17.679Z,18.2
2023-05-03T03:57:33.850Z,18.2
2023-05-03T03:58:50.349Z,18.2
2023-05-03T04:00:06.231Z,18.2
2023-05-03T04:01:22.720Z,18.2
2023-05-03T04:02:38.602Z,18.2
2023-05-03T04:03:53.815Z,18.2
2023-05-03T04:05:10.292Z,18.2
2023-05-03T04:06:26.480Z,18.2
2023-05-03T04:07:42.658Z,18.2
2023-05-03T04:08:58.547Z,18.2
2023-05-03T04:10:15.036Z,18.2
2023-05-03T04:11:31.230Z,18.2
2023-05-03T04:12:47.421Z,18.2
2023-05-03T04:14:03.604Z,18.2
2023-05-03T04:15:19.491Z,18.2
2023-05-03T04:16:35.687Z,18.2
2023-05-03T04:17:52.155Z,18.2
2023-05-03T04:19:08.048Z,18.2
2023-05-03T04:20:23.550Z,18.2
2023-05-03T04:21:39.430Z,18.2
2023-05-03T04:22:55.631Z,18.2
2023-05-03T04:24:11.806Z,18.2
2023-05-03T04:25:28.308Z,18.2
2023-05-03T04:26:44.444Z,18.2
2023-05-03T04:28:00.680Z,18.3
2023-05-03T04:29:16.824Z,18.2
2023-05-03T04:30:33.061Z,18.2
2023-05-03T04:31:49.237Z,18.2
2023-05-03T04:33:05.434Z,18.2
2023-05-03T04:34:21.604Z,18.2
2023-05-03T04:35:37.791Z,18.2
2023-05-03T04:36:53.005Z,18.2
2023-05-03T04:38:09.140Z,18.2
2023-05-03T04:39:25.383Z,18.2
2023-05-03T04:40:41.567Z,18.3
2023-05-03T04:41:57.696Z,18.3
2023-05-03T04:43:13.888Z,18.2
2023-05-03T04:44:29.110Z,18.3
2023-05-03T04:45:45.283Z,18.3
2023-05-03T04:47:01.522Z,18.3
2023-05-03T04:48:17.708Z,18.3
2023-05-03T04:49:33.890Z,18.3
2023-05-03T04:50:50.036Z,18.3
2023-05-03T04:52:06.263Z,18.3
2023-05-03T04:53:22.399Z,18.3
2023-05-03T04:54:38.599Z,18.3
2023-05-03T04:55:54.835Z,18.3
2023-05-03T04:57:10.972Z,18.3
2023-05-03T04:58:27.204Z,18.3
2023-05-03T04:59:43.343Z,18.3
2023-05-03T05:00:58.555Z,18.3
2023-05-03T05:02:14.784Z,18.3
2023-05-03T05:03:30.923Z,18.3
2023-05-03T05:04:47.149Z,18.3
2023-05-03T05:06:03.338Z,18.3
2023-05-03T05:07:19.472Z,18.3
2023-05-03T05:08:35.710Z,18.3
2023-05-03T05:09:51.908Z,18.3
2023-05-03T05:11:08.032Z,18.3
2023-05-03T05:12:24.218Z,18.3
2023-05-03T05:13:40.413Z,18.3
2023-05-03T05:14:56.606Z,18.3
2023-05-03T05:16:12.845Z,18.3
2023-05-03T05:17:27.993Z,18.3
2023-05-03T05:18:44.238Z,18.3
2023-05-03T05:20:00.374Z,18.3
2023-05-03T05:21:16.612Z,18.3
2023-05-03T05:22:32.732Z,18.4
2023-05-03T05:23:48.932Z,18.3
2023-05-03T05:25:05.105Z,18.4
2023-05-03T05:26:21.352Z,18.3
2023-05-03T05:27:37.476Z,18.4
2023-05-03T05:28:53.724Z,18.4
2023-05-03T05:30:09.908Z,18.3
2023-05-03T05:31:26.040Z,18.3
2023-05-03T05:32:42.230Z,18.4
2023-05-03T05:33:57.434Z,18.4
2023-05-03T05:35:13.614Z,18.4
2023-05-03T05:36:29.872Z,18.4
2023-05-03T05:37:45.999Z,18.4
2023-05-03T05:40:18.429Z,18.4
2023-05-03T05:41:34.607Z,18.4
2023-05-03T05:42:50.794Z,18.4
2023-05-03T05:44:06.996Z,18.5
2023-05-03T05:45:23.118Z,18.5
2023-05-03T05:46:39.297Z,18.6
2023-05-03T05:47:55.488Z,18.6
2023-05-03T05:49:11.746Z,18.6
2023-05-03T05:50:26.879Z,18.6
2023-05-03T05:51:43.123Z,18.6
2023-05-03T05:52:59.318Z,18.6
2023-05-03T05:54:15.452Z,18.6
2023-05-03T05:55:31.699Z,18.6
2023-05-03T05:56:47.880Z,18.6
2023-05-03T05:58:04.004Z,18.6
2023-05-03T05:59:20.180Z,18.7
2023-05-03T06:00:36.380Z,18.7
2023-05-03T06:03:08.740Z,18.7
2023-05-03T06:04:25.004Z,18.7
2023-05-03T06:05:41.178Z,18.7
2023-05-03T06:06:56.337Z,18.7
2023-05-03T06:08:12.569Z,18.7
2023-05-03T06:09:28.763Z,18.7
2023-05-03T06:10:44.896Z,18.7
2023-05-03T06:12:01.148Z,18.7
2023-05-03T06:13:17.326Z,18.7
2023-05-03T06:14:33.446Z,18.7
2023-05-03T06:15:49.636Z,18.7
2023-05-03T06:17:05.889Z,18.7
2023-05-03T06:18:21.998Z,18.7
2023-05-03T06:19:38.257Z,18.7
2023-05-03T06:20:54.450Z,18.7
2023-05-03T06:22:10.576Z,18.7
2023-05-03T06:23:25.763Z,18.7
2023-05-03T06:24:41.967Z,18.7
2023-05-03T06:25:58.143Z,18.7
2023-05-03T06:27:14.394Z,18.7
2023-05-03T06:28:30.591Z,18.7
2023-05-03T06:29:46.779Z,18.7
2023-05-03T06:31:02.965Z,18.7
2023-05-03T06:32:19.079Z,18.7
2023-05-03T06:33:35.342Z,18.7
2023-05-03T06:34:51.532Z,18.7
2023-05-03T06:36:07.632Z,18.7
2023-05-03T06:37:23.823Z,18.7
2023-05-03T06:38:40.023Z,18.7
2023-05-03T06:39:55.207Z,18.8
2023-05-03T06:41:11.411Z,18.8
2023-05-03T06:42:27.584Z,18.9
2023-05-03T06:43:43.774Z,18.9
2023-05-03T06:45:00.029Z,19
2023-05-03T06:46:16.215Z,19
2023-05-03T06:47:32.401Z,19
2023-05-03T06:48:48.525Z,19
2023-05-03T06:50:04.780Z,19.1
2023-05-03T06:51:20.898Z,19.1
2023-05-03T06:52:37.153Z,19.1
2023-05-03T06:53:53.271Z,19.1
2023-05-03T06:55:09.463Z,19.1
2023-05-03T06:56:24.740Z,19.1
2023-05-03T06:57:40.842Z,19.2
2023-05-03T06:58:57.108Z,19.2
2023-05-03T07:00:13.287Z,19.2
2023-05-03T07:01:29.405Z,19.2
2023-05-03T07:02:45.602Z,19.2
2023-05-03T07:04:01.781Z,19.2
2023-05-03T07:05:18.035Z,19.2
2023-05-03T07:06:34.161Z,19.2
2023-05-03T07:07:50.419Z,19.2
2023-05-03T07:09:06.533Z,19.3
2023-05-03T07:10:22.720Z,19.3
2023-05-03T07:11:38.976Z,19.3
2023-05-03T07:12:54.106Z,19.3
2023-05-03T07:14:10.288Z,19.3
2023-05-03T07:15:26.550Z,19.3
2023-05-03T07:16:42.672Z,19.3
2023-05-03T07:17:58.924Z,19.4
2023-05-03T07:19:15.050Z,19.4
2023-05-03T07:20:31.302Z,19.4
2023-05-03T07:21:47.412Z,19.4
2023-05-03T07:23:03.601Z,19.4
2023-05-03T07:24:19.862Z,19.4
2023-05-03T07:25:35.971Z,19.4
2023-05-03T07:26:52.169Z,19.4
2023-05-03T07:28:08.344Z,19.4
2023-05-03T07:29:23.560Z,19.4
2023-05-03T07:30:39.812Z,19.4
2023-05-03T07:31:55.919Z,19.4
2023-05-03T07:33:12.105Z,19.4
2023-05-03T07:34:28.296Z,19.4
2023-05-03T07:35:44.496Z,19.4
2023-05-03T07:37:00.751Z,19.4
2023-05-03T07:38:16.870Z,19.4
2023-05-03T07:39:33.120Z,19.5
2023-05-03T07:40:49.228Z,19.5
2023-05-03T07:42:05.420Z,19.5
2023-05-03T07:43:21.605Z,19.5
2023-05-03T07:44:37.792Z,19.4
2023-05-03T07:45:53.082Z,19.5
2023-05-03T07:47:09.276Z,19.5
2023-05-03T07:48:25.367Z,19.5
2023-05-03T07:49:41.638Z,19.5
2023-05-03T07:50:57.824Z,19.5
2023-05-03T07:52:13.942Z,19.5
2023-05-03T07:53:30.202Z,19.5
2023-05-03T07:54:46.308Z,19.5
2023-05-03T07:56:02.507Z,19.5
2023-05-03T07:57:18.691Z,19.5
2023-05-03T07:58:34.957Z,19.5
2023-05-03T07:59:51.150Z,19.5
2023-05-03T08:01:07.264Z,19.5
2023-05-03T08:02:22.535Z,19.5
2023-05-03T08:03:38.648Z,19.5
2023-05-03T08:04:54.835Z,19.5
2023-05-03T08:06:11.015Z,19.5
2023-05-03T08:07:27.213Z,19.5
2023-05-03T08:08:43.406Z,19.5
2023-05-03T08:09:59.598Z,19.5
2023-05-03T08:11:15.767Z,19.5
2023-05-03T08:12:32.054Z,19.5
2023-05-03T08:13:48.235Z,19.5
2023-05-03T08:15:04.423Z,19.5
2023-05-03T08:16:20.521Z,19.5
2023-05-03T08:17:36.725Z,19.5
2023-05-03T08:18:51.927Z,19.5
2023-05-03T08:20:08.104Z,19.5
2023-05-03T08:21:24.386Z,19.5
2023-05-03T08:22:40.487Z,19.5
2023-05-03T08:23:56.764Z,19.5
2023-05-03T08:25:12.866Z,19.5
2023-05-03T08:26:29.057Z,19.5
2023-05-03T08:27:45.338Z,19.5
2023-05-03T08:29:01.531Z,19.5
2023-05-03T08:30:17.627Z,19.6
2023-05-03T08:31:33.803Z,19.6
2023-05-03T08:32:49.997Z,19.6
2023-05-03T08:34:06.277Z,19.6
2023-05-03T08:35:21.395Z,19.6
2023-05-03T08:36:37.576Z,19.6
2023-05-03T08:37:53.775Z,19.6
2023-05-03T08:39:10.050Z,19.6
2023-05-03T08:40:26.247Z,19.6
2023-05-03T08:41:42.330Z,19.6
2023-05-03T08:42:58.527Z,19.6
2023-05-03T08:44:14.813Z,19.6
2023-05-03T08:45:30.900Z,19.6
2023-05-03T08:46:47.181Z,19.6
2023-05-03T08:48:03.272Z,19.6
2023-05-03T08:49:19.463Z,19.6
2023-05-03T08:50:35.659Z,19.6
2023-05-03T08:51:50.865Z,19.6
2023-05-03T08:53:07.150Z,19.6
2023-05-03T08:54:23.322Z,19.6
2023-05-03T08:55:39.418Z,19.6
2023-05-03T08:56:55.601Z,19.6
2023-05-03T08:58:11.790Z,19.6
2023-05-03T08:59:27.109Z,19.6
2023-05-03T09:00:43.205Z,19.6
2023-05-03T09:01:59.483Z,19.6
2023-05-03T09:03:15.576Z,19.6
2023-05-03T09:04:31.770Z,19.6
2023-05-03T09:05:48.052Z,19.7
2023-05-03T09:07:04.146Z,19.7
2023-05-03T09:08:20.333Z,19.7
2023-05-03T09:09:36.610Z,19.7
2023-05-03T09:10:52.702Z,19.7
2023-05-03T09:12:08.894Z,19.7
2023-05-03T09:13:25.092Z,19.7
2023-05-03T09:14:41.371Z,19.7
2023-05-03T09:15:57.680Z,19.7
2023-05-03T09:17:13.873Z,19.7
2023-05-03T09:18:30.069Z,19.7
2023-05-03T09:19:46.157Z,19.7
2023-05-03T09:21:02.329Z,19.7
2023-05-03T09:22:18.640Z,19.7
2023-05-03T09:23:34.724Z,19.7
2023-05-03T09:24:51.017Z,19.7
2023-05-03T09:26:07.091Z,19.7
2023-05-03T09:27:23.380Z,19.7
2023-05-03T09:28:39.571Z,19.7
2023-05-03T09:29:55.760Z,19.7
2023-05-03T09:31:11.955Z,19.7
2023-05-03T09:32:27.152Z,19.7
2023-05-03T09:33:43.242Z,19.7
2023-05-03T09:34:59.436Z,19.8
2023-05-03T09:36:15.619Z,19.8
2023-05-03T09:37:31.909Z,19.8
2023-05-03T09:38:48.005Z,19.8
2023-05-03T09:40:04.285Z,19.8
2023-05-03T09:41:20.478Z,19.8
2023-05-03T09:42:36.556Z,19.8
2023-05-03T09:43:52.857Z,19.8
2023-05-03T09:46:25.135Z,19.8
2023-05-03T09:47:41.436Z,19.9
2023-05-03T09:48:56.520Z,19.9
2023-05-03T09:50:12.705Z,19.9
2023-05-03T09:51:28.891Z,19.9
2023-05-03T09:52:45.192Z,19.9
2023-05-03T09:54:01.382Z,19.9
2023-05-03T09:55:17.586Z,19.9
2023-05-03T09:56:33.647Z,19.9
2023-05-03T09:57:49.843Z,19.9
2023-05-03T09:59:06.035Z,19.9
2023-05-03T10:00:22.329Z,19.9
2023-05-03T10:01:38.418Z,19.9
2023-05-03T10:02:54.717Z,20
2023-05-03T10:04:10.781Z,20
2023-05-03T10:05:26.117Z,20
2023-05-03T10:06:42.179Z,20
2023-05-03T10:07:58.487Z,20
2023-05-03T10:09:14.565Z,20.1
2023-05-03T10:10:30.856Z,20.1
2023-05-03T10:11:46.936Z,20.1
2023-05-03T10:13:03.242Z,20.1
2023-05-03T10:14:19.313Z,20.1
2023-05-03T10:15:35.514Z,20
2023-05-03T10:18:08.001Z,20
2023-05-03T10:19:24.066Z,20
2023-05-03T10:20:40.259Z,20.1
2023-05-03T10:21:55.476Z,20.1
2023-05-03T10:23:11.774Z,20.1
2023-05-03T10:24:27.855Z,20.1
2023-05-03T10:25:44.158Z,20.2
2023-05-03T10:27:00.212Z,20.2
2023-05-03T10:28:16.414Z,20.2
2023-05-03T10:29:32.605Z,20.2
2023-05-03T10:30:48.900Z,20.2
2023-05-03T10:32:05.102Z,20.2
2023-05-03T10:33:21.284Z,20.2
2023-05-03T10:34:37.466Z,20.2
2023-05-03T10:35:53.548Z,20.2
2023-05-03T10:37:09.742Z,20.2
2023-05-03T10:38:25.055Z,20.2
2023-05-03T10:39:41.117Z,20.3
2023-05-03T10:40:57.308Z,20.3
2023-05-03T10:42:13.497Z,20.3
2023-05-03T10:43:29.694Z,20.4
2023-05-03T10:44:45.879Z,20.4
2023-05-03T10:46:02.076Z,20.4
2023-05-03T10:47:18.247Z,20.4
2023-05-03T10:48:34.445Z,20.4
2023-05-03T10:49:50.644Z,20.4
2023-05-03T10:51:06.823Z,20.5
2023-05-03T10:52:23.015Z,20.5
2023-05-03T10:53:39.314Z,20.5
2023-05-03T10:54:54.397Z,20.6
2023-05-03T10:56:10.714Z,20.6
2023-05-03T10:57:26.788Z,20.7
2023-05-03T10:58:42.966Z,20.7
2023-05-03T10:59:59.160Z,20.7
2023-05-03T11:01:15.355Z,20.7
2023-05-03T11:02:31.542Z,20.8
2023-05-03T11:03:47.839Z,20.8
2023-05-03T11:05:04.043Z,20.8
2023-05-03T11:06:20.111Z,20.9
2023-05-03T11:07:36.294Z,20.9
2023-05-03T11:08:52.608Z,20.9
2023-05-03T11:10:08.798Z,21
2023-05-03T11:11:24.007Z,21
2023-05-03T11:12:40.187Z,21.1
2023-05-03T11:13:56.260Z,21.1
2023-05-03T11:15:12.431Z,21.1
2023-05-03T11:16:28.757Z,21.1
2023-05-03T11:17:44.826Z,21.2
2023-05-03T11:19:01.133Z,21.2
2023-05-03T11:20:17.203Z,21.2
2023-05-03T11:21:33.381Z,21.3
2023-05-03T11:22:49.573Z,21.3
2023-05-03T11:24:05.892Z,21.4
2023-05-03T11:25:22.077Z,21.4
2023-05-03T11:26:38.147Z,21.5
2023-05-03T11:27:53.337Z,21.5
2023-05-03T11:29:09.523Z,21.6
2023-05-03T11:30:25.715Z,21.6
2023-05-03T11:31:42.045Z,21.7
2023-05-03T11:32:58.090Z,21.7
2023-05-03T11:34:14.288Z,21.8
2023-05-03T11:35:30.468Z,21.8
2023-05-03T11:36:46.664Z,21.9
2023-05-03T11:38:02.850Z,21.9
2023-05-03T11:39:19.161Z,22
2023-05-03T11:40:35.221Z,22.1
2023-05-03T11:41:51.545Z,22.1
2023-05-03T11:43:07.616Z,22.2
2023-05-03T11:44:22.823Z,22.3
2023-05-03T11:45:38.999Z,22.5
2023-05-03T11:46:55.316Z,22.7
2023-05-03T11:48:11.513Z,22.9
2023-05-03T11:49:27.559Z,23.1
2023-05-03T11:50:43.753Z,23.2
2023-05-03T11:52:00.078Z,23.3
2023-05-03T11:53:16.137Z,23.4
2023-05-03T11:54:32.327Z,23.5
2023-05-03T11:55:48.503Z,23.6
2023-05-03T11:57:04.693Z,23.7
2023-05-03T11:58:20.887Z,23.8
2023-05-03T11:59:37.077Z,23.9
2023-05-03T12:00:52.423Z,24
2023-05-03T12:02:08.597Z,24.2
2023-05-03T12:03:24.659Z,24.3
2023-05-03T12:04:40.856Z,24.4
2023-05-03T12:05:57.041Z,24.5
2023-05-03T12:07:13.221Z,24.6
2023-05-03T12:08:29.419Z,24.7
2023-05-03T12:09:45.741Z,24.8
2023-05-03T12:11:01.798Z,24.8
2023-05-03T12:12:17.990Z,24.9
2023-05-03T12:13:34.169Z,25
2023-05-03T12:14:50.488Z,25
2023-05-03T12:16:06.548Z,25.1
2023-05-03T12:17:21.762Z,25.2
2023-05-03T12:18:37.943Z,25.2
2023-05-03T12:19:54.265Z,25.3
2023-05-03T12:21:10.321Z,25.4
2023-05-03T12:22:26.510Z,25.5
2023-05-03T12:23:42.691Z,25.5
2023-05-03T12:24:59.016Z,25.5
2023-05-03T12:26:15.067Z,25.6
2023-05-03T12:27:31.277Z,25.6
2023-05-03T12:28:47.461Z,25.7
2023-05-03T12:30:03.652Z,25.8
2023-05-03T12:31:19.838Z,25.8
2023-05-03T12:32:36.154Z,25.8
2023-05-03T12:33:51.219Z,25.9
2023-05-03T12:35:07.419Z,26
2023-05-03T12:36:23.597Z,26
2023-05-03T12:37:39.800Z,26.1
2023-05-03T12:38:55.975Z,26.1
2023-05-03T12:40:12.316Z,26.2
2023-05-03T12:41:28.356Z,26.2
2023-05-03T12:42:44.682Z,26.2
2023-05-03T12:44:00.746Z,26.2
2023-05-03T12:45:16.933Z,26.3
2023-05-03T12:46:33.120Z,26.3
2023-05-03T12:47:49.444Z,26.4
2023-05-03T12:49:05.483Z,26.4
2023-05-03T12:50:20.702Z,26.5
2023-05-03T12:51:36.889Z,26.5
2023-05-03T12:52:53.068Z,26.6
2023-05-03T12:54:09.546Z,26.6
2023-05-03T12:55:25.584Z,26.7
2023-05-03T12:56:41.781Z,26.7
2023-05-03T12:57:58.103Z,26.7
2023-05-03T12:59:14.149Z,26.7
2023-05-03T13:00:30.353Z,26.7
2023-05-03T13:01:46.540Z,26.7
2023-05-03T13:03:02.871Z,26.9
2023-05-03T13:04:18.907Z,26.9
2023-05-03T13:05:35.106Z,26.9
2023-05-03T13:06:50.301Z,26.9
2023-05-03T13:08:06.501Z,27
2023-05-03T13:09:22.675Z,27
2023-05-03T13:10:38.881Z,27
2023-05-03T13:11:55.054Z,27.1
2023-05-03T13:13:11.399Z,27.1
2023-05-03T13:14:26.452Z,27.2
2023-05-03T13:15:42.650Z,27.3
2023-05-03T13:16:58.844Z,27.3
2023-05-03T13:18:15.033Z,27.4
2023-05-03T13:19:31.363Z,27.4
2023-05-03T13:20:47.406Z,27.4
2023-05-03T13:22:03.590Z,27.5
2023-05-03T13:23:19.782Z,27.5
2023-05-03T13:24:35.977Z,27.5
2023-05-03T13:25:52.161Z,27.6
2023-05-03T13:27:08.340Z,27.6
2023-05-03T13:28:24.540Z,27.6
2023-05-03T13:29:40.730Z,27.7
2023-05-03T13:30:55.942Z,27.7
2023-05-03T13:33:28.453Z,27.7
2023-05-03T13:34:44.506Z,27.7
2023-05-03T13:36:00.692Z,27.8
2023-05-03T13:37:16.871Z,27.8
2023-05-03T13:38:33.073Z,27.9
2023-05-03T13:39:49.244Z,27.9
2023-05-03T13:41:05.452Z,27.9
2023-05-03T13:42:21.640Z,28
2023-05-03T13:43:37.970Z,28.1
2023-05-03T13:44:54.163Z,28.1
2023-05-03T13:46:10.206Z,28.1
2023-05-03T13:47:25.407Z,28.2
2023-05-03T13:48:41.747Z,28.2
2023-05-03T13:49:57.775Z,28.3
2023-05-03T13:51:14.120Z,28.3
2023-05-03T13:52:30.150Z,28.4
2023-05-03T13:53:46.355Z,28.4
2023-05-03T13:55:02.541Z,28.4
2023-05-03T13:56:18.883Z,28.4
2023-05-03T13:57:34.925Z,28.5
2023-05-03T13:58:51.264Z,28.5
2023-05-03T14:00:07.298Z,28.6
2023-05-03T14:01:23.487Z,28.6
2023-05-03T14:02:39.677Z,28.7
2023-05-03T14:03:55.043Z,28.7
2023-05-03T14:05:11.062Z,28.8
2023-05-03T14:06:27.411Z,28.8
2023-05-03T14:07:43.437Z,28.9
2023-05-03T14:08:59.627Z,28.9
2023-05-03T14:10:15.824Z,29
2023-05-03T14:11:32.003Z,29
2023-05-03T14:12:48.189Z,29
2023-05-03T14:14:04.551Z,29.1
2023-05-03T14:15:20.566Z,29.1
2023-05-03T14:16:36.761Z,29.1
2023-05-03T14:17:52.960Z,29.1
2023-05-03T14:19:09.305Z,29.2
2023-05-03T14:20:24.349Z,29.2
2023-05-03T14:21:40.531Z,29.2
2023-05-03T14:22:56.715Z,29.2
2023-05-03T14:24:12.915Z,29.3
2023-05-03T14:25:29.113Z,29.3
2023-05-03T14:26:45.293Z,29.3
2023-05-03T14:28:01.474Z,29.3
2023-05-03T14:29:17.676Z,29.3
2023-05-03T14:30:33.866Z,29.3
2023-05-03T14:31:50.056Z,29.3
2023-05-03T14:33:06.243Z,29.4
2023-05-03T14:34:22.599Z,29.4
2023-05-03T14:35:38.781Z,29.4
2023-05-03T14:36:53.818Z,29.4
2023-05-03T14:38:10.004Z,29.3
2023-05-03T14:39:26.207Z,29.3
2023-05-03T14:40:42.384Z,29.3
2023-05-03T14:41:58.737Z,29.4
2023-05-03T14:43:14.772Z,29.4
2023-05-03T14:44:31.120Z,29.4
2023-05-03T14:45:47.298Z,29.4
2023-05-03T14:47:03.338Z,29.4
2023-05-03T14:48:19.518Z,29.2
2023-05-03T14:49:35.868Z,28.8
2023-05-03T14:50:51.889Z,28.7
2023-05-03T14:52:08.253Z,28.7
2023-05-03T14:53:23.290Z,28.7
2023-05-03T14:54:39.486Z,28.7
2023-05-03T14:55:55.666Z,28.9
2023-05-03T14:57:12.033Z,29
2023-05-03T14:58:28.048Z,29.1
2023-05-03T14:59:44.405Z,29.1
2023-05-03T15:01:00.589Z,29.1
2023-05-03T15:02:16.612Z,29.1
2023-05-03T15:03:32.793Z,29.1
2023-05-03T15:04:49.164Z,29
2023-05-03T15:06:05.169Z,29.1
2023-05-03T15:07:21.367Z,29
2023-05-03T15:08:37.563Z,28.9
2023-05-03T15:09:52.762Z,28.8
2023-05-03T15:11:08.956Z,28.9
2023-05-03T15:12:25.306Z,28.9
2023-05-03T15:13:41.505Z,28.8
2023-05-03T15:14:57.691Z,28.5
2023-05-03T15:16:13.704Z,28
2023-05-03T15:17:29.889Z,27.4
2023-05-03T15:18:46.077Z,26.8
2023-05-03T15:20:02.444Z,26.5
2023-05-03T15:21:18.457Z,26.3
2023-05-03T15:22:34.825Z,26.1
2023-05-03T15:23:50.837Z,26
2023-05-03T15:25:07.020Z,25.9
2023-05-03T15:26:22.233Z,25.7
2023-05-03T15:27:38.599Z,25.7
2023-05-03T15:28:54.619Z,26
2023-05-03T15:30:10.807Z,26.4
2023-05-03T15:31:26.980Z,26.5
2023-05-03T15:32:43.170Z,26.4
2023-05-03T15:33:59.375Z,26
2023-05-03T15:35:15.739Z,25.8
2023-05-03T15:36:31.737Z,25.6
2023-05-03T15:37:47.942Z,25.5
2023-05-03T15:39:04.292Z,25.4
2023-05-03T15:40:20.307Z,25.2
2023-05-03T15:41:36.493Z,25.2
2023-05-03T15:42:51.874Z,25.1
2023-05-03T15:44:07.901Z,25
2023-05-03T15:45:24.268Z,25
2023-05-03T15:46:40.262Z,24.9
2023-05-03T15:47:56.637Z,24.8
2023-05-03T15:49:12.821Z,24.8
2023-05-03T15:50:29.016Z,24.8
2023-05-03T15:51:45.195Z,24.7
2023-05-03T15:53:01.395Z,24.7
2023-05-03T15:54:17.395Z,24.6
2023-05-03T15:56:49.778Z,24.5
2023-05-03T15:58:06.150Z,24.5
2023-05-03T15:59:21.178Z,24.5
2023-05-03T16:00:37.356Z,24.4
2023-05-03T16:01:53.742Z,24.4
2023-05-03T16:03:09.731Z,24.4
2023-05-03T16:04:26.111Z,24.3
2023-05-03T16:05:42.303Z,24.3
2023-05-03T16:06:58.307Z,24.3
2023-05-03T16:08:14.680Z,24.2
2023-05-03T16:09:30.688Z,24.2
2023-05-03T16:10:46.864Z,24.2
2023-05-03T16:12:03.065Z,24.2
2023-05-03T16:13:19.439Z,24.1
2023-05-03T16:14:35.438Z,24.1
2023-05-03T16:15:50.823Z,24.1
2023-05-03T16:17:07.010Z,24
2023-05-03T16:19:39.219Z,23.9
2023-05-03T16:20:55.579Z,23.9
2023-05-03T16:22:11.590Z,23.9
2023-05-03T16:23:27.777Z,23.9
2023-05-03T16:24:43.971Z,23.8
2023-05-03T16:26:00.143Z,23.8
2023-05-03T16:27:16.344Z,23.8
2023-05-03T16:28:32.728Z,23.8
2023-05-03T16:29:48.906Z,23.7
2023-05-03T16:31:05.098Z,23.7
2023-05-03T16:32:20.108Z,23.7
2023-05-03T16:33:36.309Z,23.6
2023-05-03T16:34:52.485Z,23.6
2023-05-03T16:36:08.863Z,23.5
2023-05-03T16:37:24.866Z,23.5
2023-05-03T16:38:41.064Z,23.4
2023-05-03T16:39:57.235Z,23.4
2023-05-03T16:41:13.436Z,23.4
2023-05-03T16:42:29.630Z,23.4
2023-05-03T16:43:46.005Z,23.4
2023-05-03T16:45:02.001Z,23.3
2023-05-03T16:46:18.184Z,23.3
2023-05-03T16:47:34.369Z,23.3
2023-05-03T16:48:49.573Z,23.3
2023-05-03T16:50:05.767Z,23.3
2023-05-03T16:51:22.156Z,23.3
2023-05-03T16:52:38.147Z,23.2
2023-05-03T16:53:54.334Z,23.2
2023-05-03T16:55:10.524Z,23.2
2023-05-03T16:56:26.714Z,23.3
2023-05-03T16:57:42.901Z,23.2
2023-05-03T16:58:59.280Z,23.2
2023-05-03T17:00:15.277Z,23.2
2023-05-03T17:01:31.464Z,23.1
2023-05-03T17:02:47.657Z,23.1
2023-05-03T17:04:03.836Z,23.1